sensor_id;sensor_type;location;lat;lon;timestamp;P1;durP1;ratioP1;P2;durP2;ratioP2
21771;SDS011;11047;47.904;8.110;2023-05-07T00:02:24;3.65;;;1.92;;
21771;SDS011;11047;47.904;8.110;2023-05-07T00:04:51;2.53;;;2.33;;
21771;SDS011;11047;47.904;8.110;2023-05-07T00:07:18;3.30;;;2.20;;
21771;SDS011;11047;47.904;8.110;2023-05-07T00:09:45;4.32;;;2.33;;
21771;SDS011;11047;47.904;8.110;2023-05-07T00:12:12;4.30;;;1.90;;
21771;SDS011;11047;47.904;8.110;2023-05-07T00:14:40;2.20;;;1.98;;
21771;SDS011;11047;47.904;8.110;2023-05-07T00:17:07;4.07;;;2.22;;
21771;SDS011;11047;47.904;8.110;2023-05-07T00:19:34;3.88;;;2.00;;
21771;SDS011;11047;47.904;8.110;2023-05-07T00:22:01;5.18;;;2.40;;
21771;SDS011;11047;47.904;8.110;2023-05-07T00:24:27;3.00;;;2.15;;
21771;SDS011;11047;47.904;8.110;2023-05-07T00:26:54;14.20;;;3.53;;
21771;SDS011;11047;47.904;8.110;2023-05-07T00:29:23;4.05;;;2.20;;
21771;SDS011;11047;47.904;8.110;2023-05-07T00:31:51;5.90;;;2.53;;
21771;SDS011;11047;47.904;8.110;2023-05-07T00:34:19;6.70;;;2.22;;
21771;SDS011;11047;47.904;8.110;2023-05-07T00:36:46;6.40;;;2.47;;
21771;SDS011;11047;47.904;8.110;2023-05-07T00:39:13;3.28;;;2.58;;
21771;SDS011;11047;47.904;8.110;2023-05-07T00:41:41;10.02;;;2.40;;
21771;SDS011;11047;47.904;8.110;2023-05-07T00:44:08;5.10;;;2.63;;
21771;SDS011;11047;47.904;8.110;2023-05-07T00:46:35;3.42;;;2.13;;
21771;SDS011;11047;47.904;8.110;2023-05-07T00:49:03;4.82;;;2.42;;
21771;SDS011;11047;47.904;8.110;2023-05-07T00:51:31;4.40;;;2.58;;
21771;SDS011;11047;47.904;8.110;2023-05-07T00:53:58;6.30;;;2.25;;
21771;SDS011;11047;47.904;8.110;2023-05-07T00:56:25;3.78;;;2.58;;
21771;SDS011;11047;47.904;8.110;2023-05-07T00:58:53;3.25;;;2.38;;
21771;SDS011;11047;47.904;8.110;2023-05-07T01:01:20;7.43;;;2.53;;
21771;SDS011;11047;47.904;8.110;2023-05-07T01:03:47;7.68;;;2.58;;
21771;SDS011;11047;47.904;8.110;2023-05-07T01:06:15;3.42;;;2.45;;
21771;SDS011;11047;47.904;8.110;2023-05-07T01:08:43;3.33;;;2.20;;
21771;SDS011;11047;47.904;8.110;2023-05-07T01:11:11;4.60;;;2.05;;
21771;SDS011;11047;47.904;8.110;2023-05-07T01:13:38;4.00;;;2.53;;
21771;SDS011;11047;47.904;8.110;2023-05-07T01:16:06;4.80;;;2.38;;
21771;SDS011;11047;47.904;8.110;2023-05-07T01:18:34;8.07;;;2.40;;
21771;SDS011;11047;47.904;8.110;2023-05-07T01:21:01;4.28;;;2.30;;
21771;SDS011;11047;47.904;8.110;2023-05-07T01:23:31;4.03;;;2.25;;
21771;SDS011;11047;47.904;8.110;2023-05-07T01:26:01;8.05;;;2.35;;
21771;SDS011;11047;47.904;8.110;2023-05-07T01:28:28;3.70;;;2.25;;
21771;SDS011;11047;47.904;8.110;2023-05-07T01:30:58;2.38;;;1.90;;
21771;SDS011;11047;47.904;8.110;2023-05-07T01:33:28;6.85;;;2.40;;
21771;SDS011;11047;47.904;8.110;2023-05-07T01:35:57;6.68;;;2.53;;
21771;SDS011;11047;47.904;8.110;2023-05-07T01:38:27;4.72;;;2.17;;
21771;SDS011;11047;47.904;8.110;2023-05-07T01:40:56;6.63;;;2.40;;
21771;SDS011;11047;47.904;8.110;2023-05-07T01:43:23;5.03;;;2.10;;
21771;SDS011;11047;47.904;8.110;2023-05-07T01:45:51;4.30;;;2.65;;
21771;SDS011;11047;47.904;8.110;2023-05-07T01:48:18;4.93;;;2.05;;
21771;SDS011;11047;47.904;8.110;2023-05-07T01:50:46;3.08;;;2.65;;
21771;SDS011;11047;47.904;8.110;2023-05-07T01:53:13;3.63;;;2.10;;
21771;SDS011;11047;47.904;8.110;2023-05-07T01:55:40;2.92;;;1.88;;
21771;SDS011;11047;47.904;8.110;2023-05-07T01:58:08;4.40;;;2.13;;
21771;SDS011;11047;47.904;8.110;2023-05-07T02:00:35;5.72;;;2.58;;
21771;SDS011;11047;47.904;8.110;2023-05-07T02:03:02;4.47;;;2.85;;
21771;SDS011;11047;47.904;8.110;2023-05-07T02:05:29;3.47;;;2.20;;
21771;SDS011;11047;47.904;8.110;2023-05-07T02:07:56;5.25;;;2.42;;
21771;SDS011;11047;47.904;8.110;2023-05-07T02:10:23;4.13;;;2.50;;
21771;SDS011;11047;47.904;8.110;2023-05-07T02:12:50;2.85;;;2.13;;
21771;SDS011;11047;47.904;8.110;2023-05-07T02:15:18;4.65;;;2.75;;
21771;SDS011;11047;47.904;8.110;2023-05-07T02:20:35;6.15;;;2.20;;
21771;SDS011;11047;47.904;8.110;2023-05-07T02:23:02;4.72;;;2.22;;
21771;SDS011;11047;47.904;8.110;2023-05-07T02:25:29;4.85;;;3.00;;
21771;SDS011;11047;47.904;8.110;2023-05-07T02:27:56;5.38;;;2.13;;
21771;SDS011;11047;47.904;8.110;2023-05-07T02:30:24;3.17;;;2.25;;
21771;SDS011;11047;47.904;8.110;2023-05-07T02:32:51;3.30;;;2.60;;
21771;SDS011;11047;47.904;8.110;2023-05-07T02:35:18;14.15;;;2.78;;
21771;SDS011;11047;47.904;8.110;2023-05-07T02:37:45;2.67;;;2.17;;
21771;SDS011;11047;47.904;8.110;2023-05-07T02:40:12;3.65;;;2.80;;
21771;SDS011;11047;47.904;8.110;2023-05-07T02:42:39;4.90;;;2.80;;
21771;SDS011;11047;47.904;8.110;2023-05-07T02:45:06;2.30;;;2.00;;
21771;SDS011;11047;47.904;8.110;2023-05-07T02:47:35;3.42;;;2.20;;
21771;SDS011;11047;47.904;8.110;2023-05-07T02:50:02;2.45;;;2.10;;
21771;SDS011;11047;47.904;8.110;2023-05-07T02:52:30;3.45;;;2.20;;
21771;SDS011;11047;47.904;8.110;2023-05-07T02:54:57;2.47;;;2.28;;
21771;SDS011;11047;47.904;8.110;2023-05-07T02:57:23;2.45;;;1.90;;
21771;SDS011;11047;47.904;8.110;2023-05-07T02:59:51;3.53;;;2.38;;
21771;SDS011;11047;47.904;8.110;2023-05-07T03:02:18;7.13;;;2.35;;
21771;SDS011;11047;47.904;8.110;2023-05-07T03:04:46;9.02;;;2.53;;
21771;SDS011;11047;47.904;8.110;2023-05-07T03:07:13;2.85;;;2.13;;
21771;SDS011;11047;47.904;8.110;2023-05-07T03:09:40;4.88;;;2.22;;
21771;SDS011;11047;47.904;8.110;2023-05-07T03:12:07;4.70;;;2.20;;
21771;SDS011;11047;47.904;8.110;2023-05-07T03:14:34;6.05;;;2.75;;
21771;SDS011;11047;47.904;8.110;2023-05-07T03:17:00;2.72;;;2.08;;
21771;SDS011;11047;47.904;8.110;2023-05-07T03:19:27;6.43;;;2.45;;
21771;SDS011;11047;47.904;8.110;2023-05-07T03:21:57;3.22;;;2.20;;
21771;SDS011;11047;47.904;8.110;2023-05-07T03:24:24;3.35;;;1.90;;
21771;SDS011;11047;47.904;8.110;2023-05-07T03:26:50;3.63;;;1.80;;
21771;SDS011;11047;47.904;8.110;2023-05-07T03:29:17;2.58;;;1.90;;
21771;SDS011;11047;47.904;8.110;2023-05-07T03:31:44;5.25;;;1.83;;
21771;SDS011;11047;47.904;8.110;2023-05-07T03:34:11;2.17;;;1.98;;
21771;SDS011;11047;47.904;8.110;2023-05-07T03:36:38;2.72;;;1.85;;
21771;SDS011;11047;47.904;8.110;2023-05-07T03:39:06;2.70;;;2.50;;
21771;SDS011;11047;47.904;8.110;2023-05-07T03:41:33;2.63;;;2.00;;
21771;SDS011;11047;47.904;8.110;2023-05-07T03:44:00;3.38;;;2.03;;
21771;SDS011;11047;47.904;8.110;2023-05-07T03:46:27;3.45;;;2.03;;
21771;SDS011;11047;47.904;8.110;2023-05-07T03:48:54;2.85;;;1.92;;
21771;SDS011;11047;47.904;8.110;2023-05-07T03:51:21;2.83;;;2.08;;
21771;SDS011;11047;47.904;8.110;2023-05-07T03:53:47;5.13;;;1.65;;
21771;SDS011;11047;47.904;8.110;2023-05-07T03:56:16;2.88;;;1.90;;
21771;SDS011;11047;47.904;8.110;2023-05-07T03:58:42;3.55;;;1.92;;
21771;SDS011;11047;47.904;8.110;2023-05-07T04:01:09;5.97;;;2.60;;
21771;SDS011;11047;47.904;8.110;2023-05-07T04:03:37;3.92;;;2.42;;
21771;SDS011;11047;47.904;8.110;2023-05-07T04:06:04;6.18;;;2.50;;
21771;SDS011;11047;47.904;8.110;2023-05-07T04:08:31;5.50;;;1.70;;
21771;SDS011;11047;47.904;8.110;2023-05-07T04:10:58;6.20;;;1.92;;
21771;SDS011;11047;47.904;8.110;2023-05-07T04:13:26;3.25;;;1.95;;
21771;SDS011;11047;47.904;8.110;2023-05-07T04:15:54;3.42;;;1.90;;
21771;SDS011;11047;47.904;8.110;2023-05-07T04:18:21;8.73;;;2.30;;
21771;SDS011;11047;47.904;8.110;2023-05-07T04:20:48;3.30;;;2.22;;
21771;SDS011;11047;47.904;8.110;2023-05-07T04:23:15;5.32;;;2.00;;
21771;SDS011;11047;47.904;8.110;2023-05-07T04:25:42;4.13;;;2.20;;
21771;SDS011;11047;47.904;8.110;2023-05-07T04:28:09;3.10;;;2.25;;
21771;SDS011;11047;47.904;8.110;2023-05-07T04:30:37;9.45;;;2.40;;
21771;SDS011;11047;47.904;8.110;2023-05-07T04:33:04;2.80;;;2.47;;
21771;SDS011;11047;47.904;8.110;2023-05-07T04:35:32;5.88;;;2.30;;
21771;SDS011;11047;47.904;8.110;2023-05-07T04:37:58;5.70;;;2.33;;
21771;SDS011;11047;47.904;8.110;2023-05-07T04:40:26;2.38;;;2.15;;
21771;SDS011;11047;47.904;8.110;2023-05-07T04:42:53;2.53;;;2.13;;
21771;SDS011;11047;47.904;8.110;2023-05-07T04:45:20;2.70;;;2.38;;
21771;SDS011;11047;47.904;8.110;2023-05-07T04:47:49;4.22;;;2.25;;
21771;SDS011;11047;47.904;8.110;2023-05-07T04:50:16;3.03;;;2.38;;
21771;SDS011;11047;47.904;8.110;2023-05-07T04:52:44;2.28;;;1.95;;
21771;SDS011;11047;47.904;8.110;2023-05-07T04:55:11;5.65;;;2.70;;
21771;SDS011;11047;47.904;8.110;2023-05-07T04:57:38;3.22;;;2.40;;
21771;SDS011;11047;47.904;8.110;2023-05-07T05:00:06;2.97;;;2.00;;
21771;SDS011;11047;47.904;8.110;2023-05-07T05:02:35;2.88;;;2.55;;
21771;SDS011;11047;47.904;8.110;2023-05-07T05:05:03;4.63;;;2.40;;
21771;SDS011;11047;47.904;8.110;2023-05-07T05:07:31;2.35;;;2.15;;
21771;SDS011;11047;47.904;8.110;2023-05-07T05:09:57;2.13;;;1.92;;
21771;SDS011;11047;47.904;8.110;2023-05-07T05:12:24;2.55;;;2.10;;
21771;SDS011;11047;47.904;8.110;2023-05-07T05:14:51;3.45;;;2.00;;
21771;SDS011;11047;47.904;8.110;2023-05-07T05:17:18;6.80;;;2.45;;
21771;SDS011;11047;47.904;8.110;2023-05-07T05:19:45;2.08;;;1.75;;
21771;SDS011;11047;47.904;8.110;2023-05-07T05:22:13;4.90;;;2.08;;
21771;SDS011;11047;47.904;8.110;2023-05-07T05:24:40;5.15;;;2.72;;
21771;SDS011;11047;47.904;8.110;2023-05-07T05:27:07;2.30;;;2.10;;
21771;SDS011;11047;47.904;8.110;2023-05-07T05:29:34;2.90;;;2.65;;
21771;SDS011;11047;47.904;8.110;2023-05-07T05:32:01;2.28;;;2.08;;
21771;SDS011;11047;47.904;8.110;2023-05-07T05:34:28;4.15;;;2.08;;
21771;SDS011;11047;47.904;8.110;2023-05-07T05:36:55;3.05;;;2.13;;
21771;SDS011;11047;47.904;8.110;2023-05-07T05:39:23;6.07;;;2.60;;
21771;SDS011;11047;47.904;8.110;2023-05-07T05:41:50;2.83;;;2.40;;
21771;SDS011;11047;47.904;8.110;2023-05-07T05:44:16;4.78;;;2.17;;
21771;SDS011;11047;47.904;8.110;2023-05-07T05:46:43;3.08;;;2.35;;
21771;SDS011;11047;47.904;8.110;2023-05-07T05:49:10;3.35;;;2.58;;
21771;SDS011;11047;47.904;8.110;2023-05-07T05:51:37;2.50;;;2.15;;
21771;SDS011;11047;47.904;8.110;2023-05-07T05:54:04;5.20;;;2.53;;
21771;SDS011;11047;47.904;8.110;2023-05-07T05:56:32;4.85;;;3.00;;
21771;SDS011;11047;47.904;8.110;2023-05-07T05:58:59;2.30;;;2.10;;
21771;SDS011;11047;47.904;8.110;2023-05-07T06:01:26;2.50;;;2.15;;
21771;SDS011;11047;47.904;8.110;2023-05-07T06:03:53;3.50;;;2.60;;
21771;SDS011;11047;47.904;8.110;2023-05-07T06:06:20;4.75;;;2.17;;
21771;SDS011;11047;47.904;8.110;2023-05-07T06:08:46;9.30;;;2.33;;
21771;SDS011;11047;47.904;8.110;2023-05-07T06:11:13;4.18;;;2.30;;
21771;SDS011;11047;47.904;8.110;2023-05-07T06:13:42;3.17;;;1.98;;
21771;SDS011;11047;47.904;8.110;2023-05-07T06:16:08;4.30;;;2.30;;
21771;SDS011;11047;47.904;8.110;2023-05-07T06:18:35;2.97;;;2.50;;
21771;SDS011;11047;47.904;8.110;2023-05-07T06:21:02;2.88;;;2.47;;
21771;SDS011;11047;47.904;8.110;2023-05-07T06:23:29;2.30;;;2.10;;
21771;SDS011;11047;47.904;8.110;2023-05-07T06:25:56;4.70;;;2.42;;
21771;SDS011;11047;47.904;8.110;2023-05-07T06:28:23;3.38;;;2.35;;
21771;SDS011;11047;47.904;8.110;2023-05-07T06:30:51;2.28;;;2.08;;
21771;SDS011;11047;47.904;8.110;2023-05-07T06:33:18;2.75;;;2.30;;
21771;SDS011;11047;47.904;8.110;2023-05-07T06:35:45;2.60;;;2.00;;
21771;SDS011;11047;47.904;8.110;2023-05-07T06:38:12;2.53;;;2.28;;
21771;SDS011;11047;47.904;8.110;2023-05-07T06:40:39;2.53;;;2.33;;
21771;SDS011;11047;47.904;8.110;2023-05-07T06:43:06;5.45;;;2.38;;
21771;SDS011;11047;47.904;8.110;2023-05-07T06:45:33;4.75;;;2.58;;
21771;SDS011;11047;47.904;8.110;2023-05-07T06:48:01;2.90;;;2.38;;
21771;SDS011;11047;47.904;8.110;2023-05-07T06:50:28;3.58;;;2.13;;
21771;SDS011;11047;47.904;8.110;2023-05-07T06:52:54;3.33;;;2.13;;
21771;SDS011;11047;47.904;8.110;2023-05-07T06:55:21;3.90;;;2.05;;
21771;SDS011;11047;47.904;8.110;2023-05-07T06:57:48;5.50;;;2.25;;
21771;SDS011;11047;47.904;8.110;2023-05-07T07:00:15;2.72;;;1.92;;
21771;SDS011;11047;47.904;8.110;2023-05-07T07:02:43;4.38;;;2.05;;
21771;SDS011;11047;47.904;8.110;2023-05-07T07:05:11;2.05;;;1.90;;
21771;SDS011;11047;47.904;8.110;2023-05-07T07:07:38;2.45;;;1.77;;
21771;SDS011;11047;47.904;8.110;2023-05-07T07:10:05;6.95;;;2.00;;
21771;SDS011;11047;47.904;8.110;2023-05-07T07:12:32;2.28;;;1.73;;
21771;SDS011;11047;47.904;8.110;2023-05-07T07:14:59;3.97;;;1.60;;
21771;SDS011;11047;47.904;8.110;2023-05-07T07:17:27;3.25;;;1.73;;
21771;SDS011;11047;47.904;8.110;2023-05-07T07:19:54;2.33;;;1.40;;
21771;SDS011;11047;47.904;8.110;2023-05-07T07:22:22;5.22;;;1.90;;
21771;SDS011;11047;47.904;8.110;2023-05-07T07:24:49;2.10;;;1.58;;
21771;SDS011;11047;47.904;8.110;2023-05-07T07:27:16;1.40;;;1.20;;
21771;SDS011;11047;47.904;8.110;2023-05-07T07:29:43;4.50;;;1.85;;
21771;SDS011;11047;47.904;8.110;2023-05-07T07:32:10;4.30;;;1.60;;
21771;SDS011;11047;47.904;8.110;2023-05-07T07:34:37;2.97;;;1.95;;
21771;SDS011;11047;47.904;8.110;2023-05-07T07:37:03;4.32;;;2.20;;
21771;SDS011;11047;47.904;8.110;2023-05-07T07:39:32;5.05;;;2.10;;
21771;SDS011;11047;47.904;8.110;2023-05-07T07:41:59;2.17;;;1.83;;
21771;SDS011;11047;47.904;8.110;2023-05-07T07:44:26;3.83;;;1.40;;
21771;SDS011;11047;47.904;8.110;2023-05-07T07:46:54;1.92;;;1.83;;
21771;SDS011;11047;47.904;8.110;2023-05-07T07:49:21;5.07;;;1.92;;
21771;SDS011;11047;47.904;8.110;2023-05-07T07:51:48;3.33;;;1.65;;
21771;SDS011;11047;47.904;8.110;2023-05-07T07:54:14;3.25;;;2.00;;
21771;SDS011;11047;47.904;8.110;2023-05-07T07:56:43;3.53;;;1.85;;
21771;SDS011;11047;47.904;8.110;2023-05-07T07:59:10;4.18;;;1.88;;
21771;SDS011;11047;47.904;8.110;2023-05-07T08:01:38;3.38;;;2.33;;
21771;SDS011;11047;47.904;8.110;2023-05-07T08:04:05;4.47;;;2.33;;
21771;SDS011;11047;47.904;8.110;2023-05-07T08:06:32;4.20;;;1.60;;
21771;SDS011;11047;47.904;8.110;2023-05-07T08:08:59;3.45;;;1.73;;
21771;SDS011;11047;47.904;8.110;2023-05-07T08:11:26;3.03;;;1.65;;
21771;SDS011;11047;47.904;8.110;2023-05-07T08:13:55;2.67;;;2.38;;
21771;SDS011;11047;47.904;8.110;2023-05-07T08:16:22;4.75;;;2.65;;
21771;SDS011;11047;47.904;8.110;2023-05-07T08:18:50;2.17;;;1.65;;
21771;SDS011;11047;47.904;8.110;2023-05-07T08:21:16;3.92;;;2.28;;
21771;SDS011;11047;47.904;8.110;2023-05-07T08:23:43;2.53;;;1.80;;
21771;SDS011;11047;47.904;8.110;2023-05-07T08:26:10;4.28;;;1.90;;
21771;SDS011;11047;47.904;8.110;2023-05-07T08:28:37;3.72;;;2.67;;
21771;SDS011;11047;47.904;8.110;2023-05-07T08:31:06;1.98;;;1.58;;
21771;SDS011;11047;47.904;8.110;2023-05-07T08:33:32;4.15;;;2.50;;
21771;SDS011;11047;47.904;8.110;2023-05-07T08:35:59;3.22;;;1.70;;
21771;SDS011;11047;47.904;8.110;2023-05-07T08:38:26;1.90;;;1.58;;
21771;SDS011;11047;47.904;8.110;2023-05-07T08:40:53;2.13;;;1.92;;
21771;SDS011;11047;47.904;8.110;2023-05-07T08:43:20;5.05;;;1.85;;
21771;SDS011;11047;47.904;8.110;2023-05-07T08:45:49;3.33;;;2.38;;
21771;SDS011;11047;47.904;8.110;2023-05-07T08:48:21;1.88;;;1.60;;
21771;SDS011;11047;47.904;8.110;2023-05-07T08:50:51;5.57;;;2.00;;
21771;SDS011;11047;47.904;8.110;2023-05-07T08:53:18;5.95;;;1.63;;
21771;SDS011;11047;47.904;8.110;2023-05-07T08:55:47;1.98;;;1.60;;
21771;SDS011;11047;47.904;8.110;2023-05-07T08:58:14;2.88;;;1.85;;
21771;SDS011;11047;47.904;8.110;2023-05-07T09:00:41;4.60;;;1.60;;
21771;SDS011;11047;47.904;8.110;2023-05-07T09:03:08;1.90;;;1.65;;
21771;SDS011;11047;47.904;8.110;2023-05-07T09:05:38;2.15;;;1.95;;
21771;SDS011;11047;47.904;8.110;2023-05-07T09:08:08;3.92;;;2.72;;
21771;SDS011;11047;47.904;8.110;2023-05-07T09:10:35;2.17;;;1.98;;
21771;SDS011;11047;47.904;8.110;2023-05-07T09:13:02;4.93;;;1.90;;
21771;SDS011;11047;47.904;8.110;2023-05-07T09:15:29;2.80;;;2.15;;
21771;SDS011;11047;47.904;8.110;2023-05-07T09:17:59;2.85;;;2.17;;
21771;SDS011;11047;47.904;8.110;2023-05-07T09:20:27;3.97;;;1.95;;
21771;SDS011;11047;47.904;8.110;2023-05-07T09:22:57;2.90;;;1.80;;
21771;SDS011;11047;47.904;8.110;2023-05-07T09:25:28;2.95;;;1.83;;
21771;SDS011;11047;47.904;8.110;2023-05-07T09:27:55;4.22;;;1.80;;
21771;SDS011;11047;47.904;8.110;2023-05-07T09:30:22;6.70;;;2.15;;
21771;SDS011;11047;47.904;8.110;2023-05-07T09:32:49;3.33;;;2.83;;
21771;SDS011;11047;47.904;8.110;2023-05-07T09:35:17;4.60;;;3.00;;
21771;SDS011;11047;47.904;8.110;2023-05-07T09:37:46;2.90;;;2.08;;
21771;SDS011;11047;47.904;8.110;2023-05-07T09:40:21;4.00;;;2.03;;
21771;SDS011;11047;47.904;8.110;2023-05-07T09:42:48;4.78;;;2.60;;
21771;SDS011;11047;47.904;8.110;2023-05-07T09:45:15;3.53;;;2.20;;
21771;SDS011;11047;47.904;8.110;2023-05-07T09:47:47;1.98;;;1.85;;
21771;SDS011;11047;47.904;8.110;2023-05-07T09:50:16;9.07;;;2.58;;
21771;SDS011;11047;47.904;8.110;2023-05-07T09:52:44;3.42;;;2.10;;
21771;SDS011;11047;47.904;8.110;2023-05-07T09:55:11;6.53;;;2.78;;
21771;SDS011;11047;47.904;8.110;2023-05-07T09:57:40;16.42;;;4.35;;
21771;SDS011;11047;47.904;8.110;2023-05-07T10:00:10;9.68;;;3.97;;
21771;SDS011;11047;47.904;8.110;2023-05-07T10:02:38;9.00;;;3.20;;
21771;SDS011;11047;47.904;8.110;2023-05-07T10:05:11;6.17;;;3.33;;
21771;SDS011;11047;47.904;8.110;2023-05-07T10:07:39;4.18;;;2.72;;
21771;SDS011;11047;47.904;8.110;2023-05-07T10:10:07;11.68;;;2.63;;
21771;SDS011;11047;47.904;8.110;2023-05-07T10:12:34;2.92;;;2.50;;
21771;SDS011;11047;47.904;8.110;2023-05-07T10:15:06;6.28;;;3.10;;
21771;SDS011;11047;47.904;8.110;2023-05-07T10:17:35;5.53;;;2.92;;
21771;SDS011;11047;47.904;8.110;2023-05-07T10:20:02;6.35;;;3.22;;
21771;SDS011;11047;47.904;8.110;2023-05-07T10:22:30;8.52;;;3.55;;
21771;SDS011;11047;47.904;8.110;2023-05-07T10:25:04;4.18;;;3.28;;
21771;SDS011;11047;47.904;8.110;2023-05-07T10:27:36;6.07;;;3.55;;
21771;SDS011;11047;47.904;8.110;2023-05-07T10:30:07;5.75;;;3.67;;
21771;SDS011;11047;47.904;8.110;2023-05-07T10:32:42;5.55;;;4.47;;
21771;SDS011;11047;47.904;8.110;2023-05-07T10:35:14;5.95;;;4.25;;
21771;SDS011;11047;47.904;8.110;2023-05-07T10:37:44;4.90;;;4.40;;
21771;SDS011;11047;47.904;8.110;2023-05-07T10:40:11;4.55;;;3.70;;
21771;SDS011;11047;47.904;8.110;2023-05-07T10:42:49;5.03;;;3.40;;
21771;SDS011;11047;47.904;8.110;2023-05-07T10:45:22;4.80;;;3.08;;
21771;SDS011;11047;47.904;8.110;2023-05-07T10:48:08;4.15;;;2.60;;
21771;SDS011;11047;47.904;8.110;2023-05-07T10:50:36;3.42;;;3.00;;
21771;SDS011;11047;47.904;8.110;2023-05-07T10:53:23;5.60;;;2.90;;
21771;SDS011;11047;47.904;8.110;2023-05-07T11:02:08;4.60;;;2.90;;
21771;SDS011;11047;47.904;8.110;2023-05-07T11:04:36;3.97;;;2.90;;
21771;SDS011;11047;47.904;8.110;2023-05-07T11:10:04;3.50;;;2.60;;
21771;SDS011;11047;47.904;8.110;2023-05-07T11:12:48;6.18;;;2.60;;
21771;SDS011;11047;47.904;8.110;2023-05-07T11:18:04;4.55;;;2.00;;
21771;SDS011;11047;47.904;8.110;2023-05-07T11:20:47;4.03;;;2.10;;
21771;SDS011;11047;47.904;8.110;2023-05-07T11:26:23;2.65;;;2.05;;
21771;SDS011;11047;47.904;8.110;2023-05-07T11:28:51;3.90;;;2.00;;
21771;SDS011;11047;47.904;8.110;2023-05-07T11:31:22;2.88;;;1.80;;
21771;SDS011;11047;47.904;8.110;2023-05-07T11:33:52;2.20;;;1.50;;
21771;SDS011;11047;47.904;8.110;2023-05-07T11:36:20;4.97;;;1.70;;
21771;SDS011;11047;47.904;8.110;2023-05-07T11:38:48;1.70;;;1.60;;
21771;SDS011;11047;47.904;8.110;2023-05-07T11:41:15;1.88;;;1.40;;
21771;SDS011;11047;47.904;8.110;2023-05-07T11:43:57;2.63;;;1.75;;
21771;SDS011;11047;47.904;8.110;2023-05-07T11:46:25;3.92;;;1.40;;
21771;SDS011;11047;47.904;8.110;2023-05-07T11:48:55;3.28;;;1.30;;
21771;SDS011;11047;47.904;8.110;2023-05-07T11:51:22;2.47;;;1.25;;
21771;SDS011;11047;47.904;8.110;2023-05-07T11:53:51;1.15;;;0.90;;
21771;SDS011;11047;47.904;8.110;2023-05-07T11:56:18;1.38;;;1.13;;
21771;SDS011;11047;47.904;8.110;2023-05-07T11:58:46;1.85;;;1.70;;
21771;SDS011;11047;47.904;8.110;2023-05-07T12:01:14;1.63;;;1.30;;
21771;SDS011;11047;47.904;8.110;2023-05-07T12:03:43;3.70;;;2.13;;
21771;SDS011;11047;47.904;8.110;2023-05-07T12:06:13;3.50;;;1.38;;
21771;SDS011;11047;47.904;8.110;2023-05-07T12:08:42;2.40;;;1.10;;
21771;SDS011;11047;47.904;8.110;2023-05-07T12:11:11;3.22;;;1.35;;
21771;SDS011;11047;47.904;8.110;2023-05-07T12:13:41;2.05;;;1.48;;
21771;SDS011;11047;47.904;8.110;2023-05-07T12:16:08;3.80;;;2.15;;
21771;SDS011;11047;47.904;8.110;2023-05-07T12:18:35;3.67;;;1.13;;
21771;SDS011;11047;47.904;8.110;2023-05-07T12:21:03;1.67;;;1.58;;
21771;SDS011;11047;47.904;8.110;2023-05-07T12:23:32;5.10;;;1.75;;
21771;SDS011;11047;47.904;8.110;2023-05-07T12:26:00;2.95;;;1.50;;
21771;SDS011;11047;47.904;8.110;2023-05-07T12:28:27;6.75;;;3.55;;
21771;SDS011;11047;47.904;8.110;2023-05-07T12:30:55;3.03;;;1.63;;
21771;SDS011;11047;47.904;8.110;2023-05-07T12:33:29;1.90;;;1.52;;
21771;SDS011;11047;47.904;8.110;2023-05-07T12:35:57;2.75;;;1.58;;
21771;SDS011;11047;47.904;8.110;2023-05-07T12:38:32;2.17;;;1.77;;
21771;SDS011;11047;47.904;8.110;2023-05-07T12:41:05;3.40;;;1.88;;
21771;SDS011;11047;47.904;8.110;2023-05-07T12:43:32;4.13;;;2.08;;
21771;SDS011;11047;47.904;8.110;2023-05-07T12:46:00;3.20;;;2.00;;
21771;SDS011;11047;47.904;8.110;2023-05-07T12:48:29;2.25;;;1.70;;
21771;SDS011;11047;47.904;8.110;2023-05-07T12:50:56;2.30;;;1.67;;
21771;SDS011;11047;47.904;8.110;2023-05-07T12:53:24;4.63;;;2.03;;
21771;SDS011;11047;47.904;8.110;2023-05-07T12:55:53;3.97;;;1.88;;
21771;SDS011;11047;47.904;8.110;2023-05-07T12:58:24;3.28;;;2.20;;
21771;SDS011;11047;47.904;8.110;2023-05-07T13:00:52;5.70;;;2.60;;
21771;SDS011;11047;47.904;8.110;2023-05-07T13:03:23;7.57;;;2.53;;
21771;SDS011;11047;47.904;8.110;2023-05-07T13:05:51;5.47;;;2.58;;
21771;SDS011;11047;47.904;8.110;2023-05-07T13:08:25;2.90;;;2.10;;
21771;SDS011;11047;47.904;8.110;2023-05-07T13:10:54;6.70;;;2.67;;
21771;SDS011;11047;47.904;8.110;2023-05-07T13:13:21;3.40;;;2.67;;
21771;SDS011;11047;47.904;8.110;2023-05-07T13:15:48;8.20;;;2.67;;
21771;SDS011;11047;47.904;8.110;2023-05-07T13:18:14;5.80;;;3.33;;
21771;SDS011;11047;47.904;8.110;2023-05-07T13:20:41;3.60;;;2.22;;
21771;SDS011;11047;47.904;8.110;2023-05-07T13:23:08;4.50;;;2.78;;
21771;SDS011;11047;47.904;8.110;2023-05-07T13:25:35;12.65;;;4.18;;
21771;SDS011;11047;47.904;8.110;2023-05-07T13:28:03;9.80;;;3.38;;
21771;SDS011;11047;47.904;8.110;2023-05-07T13:30:30;8.15;;;4.00;;
21771;SDS011;11047;47.904;8.110;2023-05-07T13:32:57;3.55;;;2.50;;
21771;SDS011;11047;47.904;8.110;2023-05-07T13:35:24;3.28;;;1.88;;
21771;SDS011;11047;47.904;8.110;2023-05-07T13:37:51;2.25;;;1.50;;
21771;SDS011;11047;47.904;8.110;2023-05-07T13:40:19;4.88;;;1.75;;
21771;SDS011;11047;47.904;8.110;2023-05-07T13:42:46;4.45;;;1.70;;
21771;SDS011;11047;47.904;8.110;2023-05-07T13:45:15;3.75;;;1.42;;
21771;SDS011;11047;47.904;8.110;2023-05-07T13:47:42;4.43;;;1.80;;
21771;SDS011;11047;47.904;8.110;2023-05-07T13:50:09;2.95;;;1.48;;
21771;SDS011;11047;47.904;8.110;2023-05-07T13:52:40;4.40;;;1.73;;
21771;SDS011;11047;47.904;8.110;2023-05-07T13:55:08;5.55;;;1.63;;
21771;SDS011;11047;47.904;8.110;2023-05-07T13:57:35;3.28;;;2.05;;
21771;SDS011;11047;47.904;8.110;2023-05-07T14:00:02;2.35;;;1.73;;
21771;SDS011;11047;47.904;8.110;2023-05-07T14:02:31;5.97;;;2.10;;
21771;SDS011;11047;47.904;8.110;2023-05-07T14:04:58;8.15;;;1.60;;
21771;SDS011;11047;47.904;8.110;2023-05-07T14:07:25;1.95;;;1.65;;
21771;SDS011;11047;47.904;8.110;2023-05-07T14:09:52;5.05;;;1.45;;
21771;SDS011;11047;47.904;8.110;2023-05-07T14:12:19;10.95;;;1.60;;
21771;SDS011;11047;47.904;8.110;2023-05-07T14:14:45;2.95;;;1.50;;
21771;SDS011;11047;47.904;8.110;2023-05-07T14:17:14;2.17;;;1.00;;
21771;SDS011;11047;47.904;8.110;2023-05-07T14:19:43;3.10;;;1.38;;
21771;SDS011;11047;47.904;8.110;2023-05-07T14:22:10;2.72;;;1.20;;
21771;SDS011;11047;47.904;8.110;2023-05-07T14:24:37;1.65;;;1.25;;
21771;SDS011;11047;47.904;8.110;2023-05-07T14:27:04;1.50;;;1.30;;
21771;SDS011;11047;47.904;8.110;2023-05-07T14:29:31;2.63;;;1.50;;
21771;SDS011;11047;47.904;8.110;2023-05-07T14:32:00;3.67;;;1.50;;
21771;SDS011;11047;47.904;8.110;2023-05-07T14:34:27;1.48;;;1.38;;
21771;SDS011;11047;47.904;8.110;2023-05-07T14:36:56;2.25;;;1.25;;
21771;SDS011;11047;47.904;8.110;2023-05-07T14:39:23;2.00;;;1.30;;
21771;SDS011;11047;47.904;8.110;2023-05-07T14:41:50;1.38;;;1.27;;
21771;SDS011;11047;47.904;8.110;2023-05-07T14:44:19;3.95;;;1.60;;
21771;SDS011;11047;47.904;8.110;2023-05-07T14:46:46;2.25;;;1.52;;
21771;SDS011;11047;47.904;8.110;2023-05-07T14:49:13;1.85;;;1.17;;
21771;SDS011;11047;47.904;8.110;2023-05-07T14:51:42;3.53;;;1.20;;
21771;SDS011;11047;47.904;8.110;2023-05-07T14:54:11;2.25;;;1.30;;
21771;SDS011;11047;47.904;8.110;2023-05-07T14:56:38;1.42;;;1.33;;
21771;SDS011;11047;47.904;8.110;2023-05-07T14:59:05;2.90;;;1.30;;
21771;SDS011;11047;47.904;8.110;2023-05-07T15:01:33;1.63;;;1.45;;
21771;SDS011;11047;47.904;8.110;2023-05-07T15:04:01;1.65;;;1.48;;
21771;SDS011;11047;47.904;8.110;2023-05-07T15:06:29;2.17;;;1.98;;
21771;SDS011;11047;47.904;8.110;2023-05-07T15:08:56;2.28;;;1.98;;
21771;SDS011;11047;47.904;8.110;2023-05-07T15:11:24;2.40;;;2.00;;